sensor_id;sensor_type;location;lat;lon;timestamp;temperature;humidity
69418;DHT22;56610;48.872;2.400;2022-09-21T00:00:51;15.90;99.90
69418;DHT22;56610;48.872;2.400;2022-09-21T00:03:17;16.00;99.90
69418;DHT22;56610;48.872;2.400;2022-09-21T00:05:43;15.90;99.90
69418;DHT22;56610;48.872;2.400;2022-09-21T00:08:11;15.80;99.90
69418;DHT22;56610;48.872;2.400;2022-09-21T00:10:37;16.00;99.90
69418;DHT22;56610;48.872;2.400;2022-09-21T00:13:04;16.00;99.90
69418;DHT22;56610;48.872;2.400;2022-09-21T00:15:30;16.00;99.90
69418;DHT22;56610;48.872;2.400;2022-09-21T00:17:57;16.00;99.90
69418;DHT22;56610;48.872;2.400;2022-09-21T00:20:24;15.90;99.90
69418;DHT22;56610;48.872;2.400;2022-09-21T00:22:51;15.90;99.90
69418;DHT22;56610;48.872;2.400;2022-09-21T00:25:17;15.80;99.90
69418;DHT22;56610;48.872;2.400;2022-09-21T00:27:45;15.80;99.90
69418;DHT22;56610;48.872;2.400;2022-09-21T00:30:17;15.80;99.90
69418;DHT22;56610;48.872;2.400;2022-09-21T00:32:43;15.80;99.90
69418;DHT22;56610;48.872;2.400;2022-09-21T00:35:08;15.80;99.90
69418;DHT22;56610;48.872;2.400;2022-09-21T00:37:34;15.80;99.90
69418;DHT22;56610;48.872;2.400;2022-09-21T00:40:00;15.80;99.90
69418;DHT22;56610;48.872;2.400;2022-09-21T00:42:33;15.80;99.90
69418;DHT22;56610;48.872;2.400;2022-09-21T00:44:59;15.80;99.90
69418;DHT22;56610;48.872;2.400;2022-09-21T00:47:27;15.80;99.90
69418;DHT22;56610;48.872;2.400;2022-09-21T00:49:57;15.80;99.90
69418;DHT22;56610;48.872;2.400;2022-09-21T00:52:24;15.80;99.90
69418;DHT22;56610;48.872;2.400;2022-09-21T00:54:53;15.80;99.90
69418;DHT22;56610;48.872;2.400;2022-09-21T00:57:21;15.80;99.90
69418;DHT22;56610;48.872;2.400;2022-09-21T00:59:50;15.70;99.90
69418;DHT22;56610;48.872;2.400;2022-09-21T01:02:19;15.70;99.90
69418;DHT22;56610;48.872;2.400;2022-09-21T01:04:45;15.90;99.90
69418;DHT22;56610;48.872;2.400;2022-09-21T01:07:15;15.80;99.90
69418;DHT22;56610;48.872;2.400;2022-09-21T01:09:45;15.80;99.90
69418;DHT22;56610;48.872;2.400;2022-09-21T01:21:07;15.70;99.90
69418;DHT22;56610;48.872;2.400;2022-09-21T01:27:06;15.70;99.90
69418;DHT22;56610;48.872;2.400;2022-09-21T01:29:50;15.70;99.90
69418;DHT22;56610;48.872;2.400;2022-09-21T01:32:27;15.60;99.90
69418;DHT22;56610;48.872;2.400;2022-09-21T01:35:14;15.50;99.90
69418;DHT22;56610;48.872;2.400;2022-09-21T01:37:46;15.50;99.90
69418;DHT22;56610;48.872;2.400;2022-09-21T01:40:18;15.50;99.90
69418;DHT22;56610;48.872;2.400;2022-09-21T01:42:46;15.50;99.90
69418;DHT22;56610;48.872;2.400;2022-09-21T01:45:16;15.50;99.90
69418;DHT22;56610;48.872;2.400;2022-09-21T01:47:45;15.60;99.90
69418;DHT22;56610;48.872;2.400;2022-09-21T01:50:12;15.60;99.90
69418;DHT22;56610;48.872;2.400;2022-09-21T01:52:57;15.70;99.90
69418;DHT22;56610;48.872;2.400;2022-09-21T01:55:30;15.60;99.90
69418;DHT22;56610;48.872;2.400;2022-09-21T01:58:10;15.60;99.90
69418;DHT22;56610;48.872;2.400;2022-09-21T02:00:40;15.60;99.90
69418;DHT22;56610;48.872;2.400;2022-09-21T02:05:46;15.60;99.90
69418;DHT22;56610;48.872;2.400;2022-09-21T02:08:11;15.60;99.90
69418;DHT22;56610;48.872;2.400;2022-09-21T02:10:45;15.60;99.90
69418;DHT22;56610;48.872;2.400;2022-09-21T02:13:14;15.50;99.90
69418;DHT22;56610;48.872;2.400;2022-09-21T02:19:10;15.50;99.90
69418;DHT22;56610;48.872;2.400;2022-09-21T02:22:06;15.50;99.90
69418;DHT22;56610;48.872;2.400;2022-09-21T02:24:36;15.40;99.90
69418;DHT22;56610;48.872;2.400;2022-09-21T02:29:51;15.40;99.90
69418;DHT22;56610;48.872;2.400;2022-09-21T02:35:12;15.30;99.90
69418;DHT22;56610;48.872;2.400;2022-09-21T02:37:47;15.30;99.90
69418;DHT22;56610;48.872;2.400;2022-09-21T02:40:29;15.40;99.90
69418;DHT22;56610;48.872;2.400;2022-09-21T02:43:20;15.30;99.90
69418;DHT22;56610;48.872;2.400;2022-09-21T02:45:52;15.30;99.90
69418;DHT22;56610;48.872;2.400;2022-09-21T02:48:25;15.20;99.90
69418;DHT22;56610;48.872;2.400;2022-09-21T02:50:58;15.10;99.90
69418;DHT22;56610;48.872;2.400;2022-09-21T02:53:29;15.00;99.90
69418;DHT22;56610;48.872;2.400;2022-09-21T02:55:58;15.10;99.90
69418;DHT22;56610;48.872;2.400;2022-09-21T02:58:27;15.20;99.90
69418;DHT22;56610;48.872;2.400;2022-09-21T03:00:55;15.20;99.90
69418;DHT22;56610;48.872;2.400;2022-09-21T03:03:23;15.20;99.90
69418;DHT22;56610;48.872;2.400;2022-09-21T03:05:52;15.20;99.90
69418;DHT22;56610;48.872;2.400;2022-09-21T03:08:18;15.30;99.90
69418;DHT22;56610;48.872;2.400;2022-09-21T03:10:44;15.40;99.90
69418;DHT22;56610;48.872;2.400;2022-09-21T03:13:11;15.40;99.90
69418;DHT22;56610;48.872;2.400;2022-09-21T03:15:38;15.30;99.90
69418;DHT22;56610;48.872;2.400;2022-09-21T03:18:06;15.30;99.90
69418;DHT22;56610;48.872;2.400;2022-09-21T03:20:34;15.40;99.90
69418;DHT22;56610;48.872;2.400;2022-09-21T03:23:00;15.40;99.90
69418;DHT22;56610;48.872;2.400;2022-09-21T03:25:27;15.30;99.90
69418;DHT22;56610;48.872;2.400;2022-09-21T03:27:53;15.20;99.90
69418;DHT22;56610;48.872;2.400;2022-09-21T03:30:20;15.20;99.90
69418;DHT22;56610;48.872;2.400;2022-09-21T03:32:50;15.40;99.90
69418;DHT22;56610;48.872;2.400;2022-09-21T03:35:17;15.40;99.90
69418;DHT22;56610;48.872;2.400;2022-09-21T03:37:43;15.30;99.90
69418;DHT22;56610;48.872;2.400;2022-09-21T03:40:10;15.40;99.90
69418;DHT22;56610;48.872;2.400;2022-09-21T03:42:37;15.40;99.90
69418;DHT22;56610;48.872;2.400;2022-09-21T03:45:04;15.40;99.90
69418;DHT22;56610;48.872;2.400;2022-09-21T03:47:29;15.40;99.90
69418;DHT22;56610;48.872;2.400;2022-09-21T03:49:55;15.30;99.90
69418;DHT22;56610;48.872;2.400;2022-09-21T03:52:41;15.20;99.90
69418;DHT22;56610;48.872;2.400;2022-09-21T03:55:08;15.20;99.90
69418;DHT22;56610;48.872;2.400;2022-09-21T03:57:35;15.20;99.90
69418;DHT22;56610;48.872;2.400;2022-09-21T04:00:03;15.30;99.90
69418;DHT22;56610;48.872;2.400;2022-09-21T04:02:29;15.20;99.90
69418;DHT22;56610;48.872;2.400;2022-09-21T04:04:55;15.30;99.90
69418;DHT22;56610;48.872;2.400;2022-09-21T04:07:20;15.20;99.90
69418;DHT22;56610;48.872;2.400;2022-09-21T04:09:46;15.10;99.90
69418;DHT22;56610;48.872;2.400;2022-09-21T04:12:12;15.00;99.90
69418;DHT22;56610;48.872;2.400;2022-09-21T04:14:37;15.00;99.90
69418;DHT22;56610;48.872;2.400;2022-09-21T04:17:03;15.10;99.90
69418;DHT22;56610;48.872;2.400;2022-09-21T04:19:49;15.10;99.90
69418;DHT22;56610;48.872;2.400;2022-09-21T04:22:15;15.20;99.90
69418;DHT22;56610;48.872;2.400;2022-09-21T04:24:41;15.30;99.90
69418;DHT22;56610;48.872;2.400;2022-09-21T04:27:10;15.40;99.90
69418;DHT22;56610;48.872;2.400;2022-09-21T04:29:37;15.30;99.90
69418;DHT22;56610;48.872;2.400;2022-09-21T04:32:04;15.20;99.90
69418;DHT22;56610;48.872;2.400;2022-09-21T04:34:30;15.20;99.90
69418;DHT22;56610;48.872;2.400;2022-09-21T04:36:57;15.30;99.90
69418;DHT22;56610;48.872;2.400;2022-09-21T04:39:43;15.30;99.90
69418;DHT22;56610;48.872;2.400;2022-09-21T04:42:09;15.10;99.90
69418;DHT22;56610;48.872;2.400;2022-09-21T04:44:34;15.00;99.90
69418;DHT22;56610;48.872;2.400;2022-09-21T04:47:00;15.00;99.90
69418;DHT22;56610;48.872;2.400;2022-09-21T04:49:26;14.90;99.90
69418;DHT22;56610;48.872;2.400;2022-09-21T04:51:51;15.00;99.90
69418;DHT22;56610;48.872;2.400;2022-09-21T04:54:17;15.10;99.90
69418;DHT22;56610;48.872;2.400;2022-09-21T04:56:43;15.00;99.90
69418;DHT22;56610;48.872;2.400;2022-09-21T04:59:08;14.90;99.90
69418;DHT22;56610;48.872;2.400;2022-09-21T05:01:34;15.00;99.90
69418;DHT22;56610;48.872;2.400;2022-09-21T05:04:00;15.00;99.90
69418;DHT22;56610;48.872;2.400;2022-09-21T05:06:29;15.00;99.90
69418;DHT22;56610;48.872;2.400;2022-09-21T05:08:55;15.20;99.90
69418;DHT22;56610;48.872;2.400;2022-09-21T05:11:39;15.20;99.90
69418;DHT22;56610;48.872;2.400;2022-09-21T05:14:04;15.30;99.90
69418;DHT22;56610;48.872;2.400;2022-09-21T05:16:30;15.20;99.90
69418;DHT22;56610;48.872;2.400;2022-09-21T05:18:56;15.20;99.90
69418;DHT22;56610;48.872;2.400;2022-09-21T05:21:21;15.10;99.90
69418;DHT22;56610;48.872;2.400;2022-09-21T05:23:47;15.10;99.90
69418;DHT22;56610;48.872;2.400;2022-09-21T05:26:13;15.20;99.90
69418;DHT22;56610;48.872;2.400;2022-09-21T05:28:39;15.30;99.90
69418;DHT22;56610;48.872;2.400;2022-09-21T05:31:31;15.30;99.90
69418;DHT22;56610;48.872;2.400;2022-09-21T05:39:58;15.20;99.90
69418;DHT22;56610;48.872;2.400;2022-09-21T05:42:24;15.10;99.90
69418;DHT22;56610;48.872;2.400;2022-09-21T05:44:50;15.20;99.90
69418;DHT22;56610;48.872;2.400;2022-09-21T05:53:37;14.80;99.90
69418;DHT22;56610;48.872;2.400;2022-09-21T06:03:45;15.00;99.90
69418;DHT22;56610;48.872;2.400;2022-09-21T06:06:12;14.90;99.90
69418;DHT22;56610;48.872;2.400;2022-09-21T06:08:38;14.80;99.90
69418;DHT22;56610;48.872;2.400;2022-09-21T06:11:04;14.80;99.90
69418;DHT22;56610;48.872;2.400;2022-09-21T06:13:29;14.80;99.90
69418;DHT22;56610;48.872;2.400;2022-09-21T06:15:55;14.90;99.90
69418;DHT22;56610;48.872;2.400;2022-09-21T06:18:21;14.90;99.90
69418;DHT22;56610;48.872;2.400;2022-09-21T06:20:46;14.80;99.90
69418;DHT22;56610;48.872;2.400;2022-09-21T06:23:13;14.80;99.90
69418;DHT22;56610;48.872;2.400;2022-09-21T06:25:39;14.80;99.90
69418;DHT22;56610;48.872;2.400;2022-09-21T06:28:06;14.80;99.90
69418;DHT22;56610;48.872;2.400;2022-09-21T06:30:32;14.80;99.90
69418;DHT22;56610;48.872;2.400;2022-09-21T06:33:02;14.90;99.90
69418;DHT22;56610;48.872;2.400;2022-09-21T06:35:29;15.00;99.90
69418;DHT22;56610;48.872;2.400;2022-09-21T06:38:04;15.00;99.90
69418;DHT22;56610;48.872;2.400;2022-09-21T06:40:30;14.90;99.90
69418;DHT22;56610;48.872;2.400;2022-09-21T06:42:58;15.10;99.90
69418;DHT22;56610;48.872;2.400;2022-09-21T06:45:29;15.00;99.90
69418;DHT22;56610;48.872;2.400;2022-09-21T06:47:55;15.10;99.90
69418;DHT22;56610;48.872;2.400;2022-09-21T06:50:22;15.00;99.90
69418;DHT22;56610;48.872;2.400;2022-09-21T06:52:47;15.10;99.90
69418;DHT22;56610;48.872;2.400;2022-09-21T06:55:13;15.00;99.90
69418;DHT22;56610;48.872;2.400;2022-09-21T06:57:39;15.00;99.90
69418;DHT22;56610;48.872;2.400;2022-09-21T07:00:07;15.10;99.90
69418;DHT22;56610;48.872;2.400;2022-09-21T07:02:34;15.00;99.90
69418;DHT22;56610;48.872;2.400;2022-09-21T07:05:00;15.00;99.90
69418;DHT22;56610;48.872;2.400;2022-09-21T07:07:27;15.00;99.90
69418;DHT22;56610;48.872;2.400;2022-09-21T07:09:55;15.00;99.90
69418;DHT22;56610;48.872;2.400;2022-09-21T07:12:20;15.10;99.90
69418;DHT22;56610;48.872;2.400;2022-09-21T07:14:46;15.10;99.90
69418;DHT22;56610;48.872;2.400;2022-09-21T07:17:12;15.20;99.90
69418;DHT22;56610;48.872;2.400;2022-09-21T07:19:39;15.30;99.90
69418;DHT22;56610;48.872;2.400;2022-09-21T07:22:05;15.20;99.90
69418;DHT22;56610;48.872;2.400;2022-09-21T07:24:30;15.20;99.90
69418;DHT22;56610;48.872;2.400;2022-09-21T07:26:56;15.20;99.90
69418;DHT22;56610;48.872;2.400;2022-09-21T07:29:22;15.30;99.90
69418;DHT22;56610;48.872;2.400;2022-09-21T07:31:47;15.30;99.90
69418;DHT22;56610;48.872;2.400;2022-09-21T07:34:13;15.30;99.90
69418;DHT22;56610;48.872;2.400;2022-09-21T07:36:39;15.20;99.90
69418;DHT22;56610;48.872;2.400;2022-09-21T07:39:05;15.30;99.90
69418;DHT22;56610;48.872;2.400;2022-09-21T07:41:31;15.40;99.90
69418;DHT22;56610;48.872;2.400;2022-09-21T07:43:56;15.50;99.90
69418;DHT22;56610;48.872;2.400;2022-09-21T07:46:22;15.60;99.90
69418;DHT22;56610;48.872;2.400;2022-09-21T07:48:47;15.50;99.90
69418;DHT22;56610;48.872;2.400;2022-09-21T07:51:14;15.50;99.90
69418;DHT22;56610;48.872;2.400;2022-09-21T07:53:41;15.60;99.90
69418;DHT22;56610;48.872;2.400;2022-09-21T07:56:09;15.50;99.90
69418;DHT22;56610;48.872;2.400;2022-09-21T07:58:36;15.50;99.90
69418;DHT22;56610;48.872;2.400;2022-09-21T08:01:21;15.50;99.90
69418;DHT22;56610;48.872;2.400;2022-09-21T08:03:51;15.50;99.90
69418;DHT22;56610;48.872;2.400;2022-09-21T08:06:17;15.70;99.90
69418;DHT22;56610;48.872;2.400;2022-09-21T08:08:44;15.80;99.90
69418;DHT22;56610;48.872;2.400;2022-09-21T08:11:14;15.90;99.90
69418;DHT22;56610;48.872;2.400;2022-09-21T08:13:39;16.00;99.90
69418;DHT22;56610;48.872;2.400;2022-09-21T08:16:05;16.10;99.90
69418;DHT22;56610;48.872;2.400;2022-09-21T08:18:31;16.30;99.90
69418;DHT22;56610;48.872;2.400;2022-09-21T08:20:58;16.30;99.90
69418;DHT22;56610;48.872;2.400;2022-09-21T08:23:25;16.40;99.90
69418;DHT22;56610;48.872;2.400;2022-09-21T08:26:05;16.30;99.90
69418;DHT22;56610;48.872;2.400;2022-09-21T08:28:32;16.30;99.90
69418;DHT22;56610;48.872;2.400;2022-09-21T08:31:06;16.20;99.90
69418;DHT22;56610;48.872;2.400;2022-09-21T08:33:33;16.10;99.90
69418;DHT22;56610;48.872;2.400;2022-09-21T08:35:59;16.10;99.90
69418;DHT22;56610;48.872;2.400;2022-09-21T08:38:26;16.20;99.90
69418;DHT22;56610;48.872;2.400;2022-09-21T08:40:52;16.30;99.90
69418;DHT22;56610;48.872;2.400;2022-09-21T08:45:54;16.50;99.90
69418;DHT22;56610;48.872;2.400;2022-09-21T08:48:25;16.50;99.90
69418;DHT22;56610;48.872;2.400;2022-09-21T08:50:54;16.50;99.90
69418;DHT22;56610;48.872;2.400;2022-09-21T08:53:31;16.60;99.90
69418;DHT22;56610;48.872;2.400;2022-09-21T08:55:58;16.60;99.90
69418;DHT22;56610;48.872;2.400;2022-09-21T08:58:26;16.70;99.90
69418;DHT22;56610;48.872;2.400;2022-09-21T09:22:27;17.00;99.90
69418;DHT22;56610;48.872;2.400;2022-09-21T09:24:59;17.00;99.90
69418;DHT22;56610;48.872;2.400;2022-09-21T09:27:31;17.00;99.90
69418;DHT22;56610;48.872;2.400;2022-09-21T09:30:16;17.10;99.90
69418;DHT22;56610;48.872;2.400;2022-09-21T09:32:53;17.20;99.90
69418;DHT22;56610;48.872;2.400;2022-09-21T09:37:55;17.30;99.90
69418;DHT22;56610;48.872;2.400;2022-09-21T09:40:43;17.40;99.90
69418;DHT22;56610;48.872;2.400;2022-09-21T09:43:54;17.40;99.90
69418;DHT22;56610;48.872;2.400;2022-09-21T09:52:03;17.30;99.90
69418;DHT22;56610;48.872;2.400;2022-09-21T09:54:33;17.40;99.90
69418;DHT22;56610;48.872;2.400;2022-09-21T09:57:00;17.50;99.90
69418;DHT22;56610;48.872;2.400;2022-09-21T10:02:06;17.80;99.90
69418;DHT22;56610;48.872;2.400;2022-09-21T10:04:32;17.90;99.90
69418;DHT22;56610;48.872;2.400;2022-09-21T10:06:59;17.90;99.90
69418;DHT22;56610;48.872;2.400;2022-09-21T10:09:29;18.00;99.90
69418;DHT22;56610;48.872;2.400;2022-09-21T10:12:17;18.00;99.90
69418;DHT22;56610;48.872;2.400;2022-09-21T10:14:49;18.00;99.90
69418;DHT22;56610;48.872;2.400;2022-09-21T10:17:16;18.00;99.90
69418;DHT22;56610;48.872;2.400;2022-09-21T10:19:43;18.20;99.90
69418;DHT22;56610;48.872;2.400;2022-09-21T10:22:15;18.20;99.90
69418;DHT22;56610;48.872;2.400;2022-09-21T10:25:02;18.30;99.90
69418;DHT22;56610;48.872;2.400;2022-09-21T10:27:34;18.30;99.90
69418;DHT22;56610;48.872;2.400;2022-09-21T10:30:01;18.40;99.90
69418;DHT22;56610;48.872;2.400;2022-09-21T10:32:27;18.50;99.90
69418;DHT22;56610;48.872;2.400;2022-09-21T10:37:45;18.70;99.90
69418;DHT22;56610;48.872;2.400;2022-09-21T10:42:51;18.90;99.80
69418;DHT22;56610;48.872;2.400;2022-09-21T10:45:24;19.00;99.40
69418;DHT22;56610;48.872;2.400;2022-09-21T10:47:58;19.20;99.00
69418;DHT22;56610;48.872;2.400;2022-09-21T10:50:39;19.30;98.70
69418;DHT22;56610;48.872;2.400;2022-09-21T10:55:45;19.70;97.60
69418;DHT22;56610;48.872;2.400;2022-09-21T10:58:13;19.90;97.10
69418;DHT22;56610;48.872;2.400;2022-09-21T11:00:44;20.10;97.00
69418;DHT22;56610;48.872;2.400;2022-09-21T11:05:56;20.50;96.50
69418;DHT22;56610;48.872;2.400;2022-09-21T11:08:29;20.60;96.20
69418;DHT22;56610;48.872;2.400;2022-09-21T11:11:10;20.70;96.20
69418;DHT22;56610;48.872;2.400;2022-09-21T11:16:47;21.20;95.10
69418;DHT22;56610;48.872;2.400;2022-09-21T11:22:26;21.60;93.80
69418;DHT22;56610;48.872;2.400;2022-09-21T11:27:37;22.10;93.00
69418;DHT22;56610;48.872;2.400;2022-09-21T11:30:13;22.10;93.10
69418;DHT22;56610;48.872;2.400;2022-09-21T11:38:10;23.10;91.80
69418;DHT22;56610;48.872;2.400;2022-09-21T11:46:20;24.50;90.20
69418;DHT22;56610;48.872;2.400;2022-09-21T12:10:45;25.40;83.70
69418;DHT22;56610;48.872;2.400;2022-09-21T12:23:48;26.60;79.60
69418;DHT22;56610;48.872;2.400;2022-09-21T12:26:43;26.70;78.90
69418;DHT22;56610;48.872;2.400;2022-09-21T12:34:45;26.20;77.00
69418;DHT22;56610;48.872;2.400;2022-09-21T12:37:20;26.00;77.90
69418;DHT22;56610;48.872;2.400;2022-09-21T12:39:50;26.20;77.60
69418;DHT22;56610;48.872;2.400;2022-09-21T12:42:27;26.40;76.50
69418;DHT22;56610;48.872;2.400;2022-09-21T12:45:13;26.40;76.00
69418;DHT22;56610;48.872;2.400;2022-09-21T12:47:47;26.50;75.90
69418;DHT22;56610;48.872;2.400;2022-09-21T12:50:36;26.70;76.00
69418;DHT22;56610;48.872;2.400;2022-09-21T12:53:04;27.00;75.70
69418;DHT22;56610;48.872;2.400;2022-09-21T13:00:33;27.50;73.80
69418;DHT22;56610;48.872;2.400;2022-09-21T13:08:23;27.70;72.10
69418;DHT22;56610;48.872;2.400;2022-09-21T13:11:00;27.70;72.30
69418;DHT22;56610;48.872;2.400;2022-09-21T13:14:02;27.80;71.80
69418;DHT22;56610;48.872;2.400;2022-09-21T13:16:28;28.00;72.00
69418;DHT22;56610;48.872;2.400;2022-09-21T13:18:58;28.10;72.00
69418;DHT22;56610;48.872;2.400;2022-09-21T13:21:26;28.00;72.50
69418;DHT22;56610;48.872;2.400;2022-09-21T13:24:02;28.10;72.30
69418;DHT22;56610;48.872;2.400;2022-09-21T13:34:37;27.50;72.80
69418;DHT22;56610;48.872;2.400;2022-09-21T13:39:50;26.90;72.00
69418;DHT22;56610;48.872;2.400;2022-09-21T13:44:59;26.20;72.00
69418;DHT22;56610;48.872;2.400;2022-09-21T13:47:36;26.00;72.80
69418;DHT22;56610;48.872;2.400;2022-09-21T13:52:59;26.30;73.30
69418;DHT22;56610;48.872;2.400;2022-09-21T13:55:32;26.40;73.60
69418;DHT22;56610;48.872;2.400;2022-09-21T13:58:04;26.50;73.10
69418;DHT22;56610;48.872;2.400;2022-09-21T14:00:54;26.60;72.60
69418;DHT22;56610;48.872;2.400;2022-09-21T14:03:24;26.70;73.10
69418;DHT22;56610;48.872;2.400;2022-09-21T14:05:54;26.80;72.90
69418;DHT22;56610;48.872;2.400;2022-09-21T14:08:30;26.90;72.60
69418;DHT22;56610;48.872;2.400;2022-09-21T14:11:07;26.70;72.40
69418;DHT22;56610;48.872;2.400;2022-09-21T14:24:41;26.60;71.90
69418;DHT22;56610;48.872;2.400;2022-09-21T14:27:30;26.70;72.60
69418;DHT22;56610;48.872;2.400;2022-09-21T14:32:34;26.80;71.90
69418;DHT22;56610;48.872;2.400;2022-09-21T14:35:15;26.90;71.60
69418;DHT22;56610;48.872;2.400;2022-09-21T14:37:59;26.90;72.50
69418;DHT22;56610;48.872;2.400;2022-09-21T14:40:34;27.00;71.60
69418;DHT22;56610;48.872;2.400;2022-09-21T14:43:07;27.00;71.70
69418;DHT22;56610;48.872;2.400;2022-09-21T14:51:38;26.70;70.70
69418;DHT22;56610;48.872;2.400;2022-09-21T14:54:17;27.10;69.90
69418;DHT22;56610;48.872;2.400;2022-09-21T15:02:28;27.60;69.20
69418;DHT22;56610;48.872;2.400;2022-09-21T15:07:36;27.40;68.70
69418;DHT22;56610;48.872;2.400;2022-09-21T15:10:31;27.40;68.40
69418;DHT22;56610;48.872;2.400;2022-09-21T15:16:10;27.20;68.20
69418;DHT22;56610;48.872;2.400;2022-09-21T15:18:44;27.00;68.30
69418;DHT22;56610;48.872;2.400;2022-09-21T15:21:22;26.80;68.50
69418;DHT22;56610;48.872;2.400;2022-09-21T15:23:51;26.80;68.80
69418;DHT22;56610;48.872;2.400;2022-09-21T15:26:27;26.50;68.90
69418;DHT22;56610;48.872;2.400;2022-09-21T15:29:03;26.20;69.40
69418;DHT22;56610;48.872;2.400;2022-09-21T15:31:33;25.90;69.60
69418;DHT22;56610;48.872;2.400;2022-09-21T15:34:00;25.50;69.80
69418;DHT22;56610;48.872;2.400;2022-09-21T15:36:29;25.10;70.50
69418;DHT22;56610;48.872;2.400;2022-09-21T15:38:55;24.90;70.70
69418;DHT22;56610;48.872;2.400;2022-09-21T15:41:44;24.40;70.80
69418;DHT22;56610;48.872;2.400;2022-09-21T15:44:16;24.00;71.30
69418;DHT22;56610;48.872;2.400;2022-09-21T15:46:47;23.80;71.70
69418;DHT22;56610;48.872;2.400;2022-09-21T15:49:16;23.70;71.60
69418;DHT22;56610;48.872;2.400;2022-09-21T15:51:50;23.50;72.10
69418;DHT22;56610;48.872;2.400;2022-09-21T15:56:54;23.50;72.30
69418;DHT22;56610;48.872;2.400;2022-09-21T15:59:20;23.40;72.70
69418;DHT22;56610;48.872;2.400;2022-09-21T16:01:52;23.20;72.90
69418;DHT22;56610;48.872;2.400;2022-09-21T16:04:24;23.00;73.60
69418;DHT22;56610;48.872;2.400;2022-09-21T16:07:04;22.90;74.60
69418;DHT22;56610;48.872;2.400;2022-09-21T16:09:39;22.80;75.10
69418;DHT22;56610;48.872;2.400;2022-09-21T16:15:18;22.60;75.70
69418;DHT22;56610;48.872;2.400;2022-09-21T16:18:01;22.60;75.80
69418;DHT22;56610;48.872;2.400;2022-09-21T16:23:31;22.40;75.90
69418;DHT22;56610;48.872;2.400;2022-09-21T16:25:59;22.40;75.90
69418;DHT22;56610;48.872;2.400;2022-09-21T16:28:38;22.40;76.00
69418;DHT22;56610;48.872;2.400;2022-09-21T16:31:28;22.30;75.80
69418;DHT22;56610;48.872;2.400;2022-09-21T16:38:47;22.00;76.00
69418;DHT22;56610;48.872;2.400;2022-09-21T16:41:12;22.00;76.20
69418;DHT22;56610;48.872;2.400;2022-09-21T16:43:42;21.80;76.50
69418;DHT22;56610;48.872;2.400;2022-09-21T16:46:09;21.90;76.90
69418;DHT22;56610;48.872;2.400;2022-09-21T16:48:34;21.80;77.20
69418;DHT22;56610;48.872;2.400;2022-09-21T16:51:00;21.70;77.30
69418;DHT22;56610;48.872;2.400;2022-09-21T16:53:26;21.70;77.30
69418;DHT22;56610;48.872;2.400;2022-09-21T16:55:55;21.70;77.60
69418;DHT22;56610;48.872;2.400;2022-09-21T16:58:21;21.80;77.50
69418;DHT22;56610;48.872;2.400;2022-09-21T17:00:49;21.80;77.00
69418;DHT22;56610;48.872;2.400;2022-09-21T17:03:16;21.70;77.10
69418;DHT22;56610;48.872;2.400;2022-09-21T17:05:42;21.60;77.30
69418;DHT22;56610;48.872;2.400;2022-09-21T17:08:09;21.50;77.40
69418;DHT22;56610;48.872;2.400;2022-09-21T17:10:40;21.50;77.70
69418;DHT22;56610;48.872;2.400;2022-09-21T17:13:07;21.50;77.50
69418;DHT22;56610;48.872;2.400;2022-09-21T17:15:33;21.50;77.20
69418;DHT22;56610;48.872;2.400;2022-09-21T17:18:01;21.60;76.90
69418;DHT22;56610;48.872;2.400;2022-09-21T17:20:38;21.50;77.40
69418;DHT22;56610;48.872;2.400;2022-09-21T17:23:06;21.70;77.50
69418;DHT22;56610;48.872;2.400;2022-09-21T17:25:33;21.60;77.50
69418;DHT22;56610;48.872;2.400;2022-09-21T17:28:03;21.60;77.50
69418;DHT22;56610;48.872;2.400;2022-09-21T17:30:30;21.50;77.30
69418;DHT22;56610;48.872;2.400;2022-09-21T17:32:56;21.60;77.20
69418;DHT22;56610;48.872;2.400;2022-09-21T17:35:35;21.50;77.80
69418;DHT22;56610;48.872;2.400;2022-09-21T17:38:01;21.50;77.80
69418;DHT22;56610;48.872;2.400;2022-09-21T17:40:27;21.40;78.00
69418;DHT22;56610;48.872;2.400;2022-09-21T17:43:07;21.30;78.40
69418;DHT22;56610;48.872;2.400;2022-09-21T17:45:45;21.30;78.90
69418;DHT22;56610;48.872;2.400;2022-09-21T17:48:20;21.20;79.20
69418;DHT22;56610;48.872;2.400;2022-09-21T17:50:47;21.10;79.40
69418;DHT22;56610;48.872;2.400;2022-09-21T17:53:13;21.10;79.70
69418;DHT22;56610;48.872;2.400;2022-09-21T17:55:58;21.10;79.60
69418;DHT22;56610;48.872;2.400;2022-09-21T17:58:52;21.00;80.10
69418;DHT22;56610;48.872;2.400;2022-09-21T18:01:42;20.90;80.00
69418;DHT22;56610;48.872;2.400;2022-09-21T18:04:09;20.90;80.30
69418;DHT22;56610;48.872;2.400;2022-09-21T18:06:35;20.80;80.50
69418;DHT22;56610;48.872;2.400;2022-09-21T18:09:01;20.80;80.40
69418;DHT22;56610;48.872;2.400;2022-09-21T18:11:48;20.80;80.90
69418;DHT22;56610;48.872;2.400;2022-09-21T18:25:13;20.60;81.10
69418;DHT22;56610;48.872;2.400;2022-09-21T18:27:40;20.60;81.50
69418;DHT22;56610;48.872;2.400;2022-09-21T18:30:08;20.50;81.70
69418;DHT22;56610;48.872;2.400;2022-09-21T18:32:48;20.50;81.60
69418;DHT22;56610;48.872;2.400;2022-09-21T18:41:03;20.40;81.60
69418;DHT22;56610;48.872;2.400;2022-09-21T18:46:05;20.40;81.80
69418;DHT22;56610;48.872;2.400;2022-09-21T18:51:28;20.40;82.00
69418;DHT22;56610;48.872;2.400;2022-09-21T18:53:56;20.30;82.20
69418;DHT22;56610;48.872;2.400;2022-09-21T18:56:23;20.30;82.30
69418;DHT22;56610;48.872;2.400;2022-09-21T18:58:49;20.30;82.30
69418;DHT22;56610;48.872;2.400;2022-09-21T19:01:16;20.30;82.60
69418;DHT22;56610;48.872;2.400;2022-09-21T19:03:44;20.30;82.20
69418;DHT22;56610;48.872;2.400;2022-09-21T19:11:36;20.20;82.60
69418;DHT22;56610;48.872;2.400;2022-09-21T19:17:43;20.20;82.60
69418;DHT22;56610;48.872;2.400;2022-09-21T19:23:30;20.00;83.40
69418;DHT22;56610;48.872;2.400;2022-09-21T19:31:11;19.90;83.80
69418;DHT22;56610;48.872;2.400;2022-09-21T19:33:37;19.90;84.20
69418;DHT22;56610;48.872;2.400;2022-09-21T19:36:03;19.90;84.20
69418;DHT22;56610;48.872;2.400;2022-09-21T19:38:29;19.90;84.20
69418;DHT22;56610;48.872;2.400;2022-09-21T19:41:03;19.80;84.70
69418;DHT22;56610;48.872;2.400;2022-09-21T19:43:40;19.70;84.70
69418;DHT22;56610;48.872;2.400;2022-09-21T19:46:30;19.80;85.00
69418;DHT22;56610;48.872;2.400;2022-09-21T19:49:13;19.70;85.20
69418;DHT22;56610;48.872;2.400;2022-09-21T19:51:50;19.70;85.00
69418;DHT22;56610;48.872;2.400;2022-09-21T19:54:18;19.70;85.40
69418;DHT22;56610;48.872;2.400;2022-09-21T19:57:20;19.70;85.60
69418;DHT22;56610;48.872;2.400;2022-09-21T20:00:16;19.60;85.90
69418;DHT22;56610;48.872;2.400;2022-09-21T20:03:04;19.60;85.70
69418;DHT22;56610;48.872;2.400;2022-09-21T20:08:51;19.50;86.20
69418;DHT22;56610;48.872;2.400;2022-09-21T20:14:18;19.60;86.20
69418;DHT22;56610;48.872;2.400;2022-09-21T20:16:52;19.60;86.30